Time;durP1;ratioP1;P1;durP2;ratioP2;P2;SDS_P1;SDS_P2;PMS_P1;PMS_P2;Temp;Humidity;BMP_temperature;BMP_pressure;BME280_temperature;BME280_humidity;BME280_pressure;Samples;Min_cycle;Max_cycle;Signal;HPM_P1;HPM_P2
2023/08/23 00:01:42;;;;;;;3.50;3.15;;;;;;;14.30;97.19;101985.91;4992621;28;20027;-70
2023/08/23 00:04:08;;;;;;;5.65;4.38;;;;;;;14.07;97.81;101986.97;4978572;28;20033;-70
2023/08/23 00:06:33;;;;;;;6.78;4.30;;;;;;;14.20;97.66;101987.75;4980065;28;20029;-70
2023/08/23 00:08:59;;;;;;;4.63;4.22;;;;;;;14.26;97.36;101989.44;4978054;28;20033;-70
2023/08/23 00:11:24;;;;;;;5.90;4.97;;;;;;;14.20;98.17;101987.75;4993198;28;20030;-70
2023/08/23 00:13:50;;;;;;;5.25;4.75;;;;;;;14.21;97.06;101993.00;4976430;28;20046;-70
2023/08/23 00:16:15;;;;;;;5.43;4.40;;;;;;;14.14;97.24;101988.66;4981442;28;20034;-70
2023/08/23 00:18:40;;;;;;;11.98;7.15;;;;;;;14.07;100.00;101978.19;4991531;28;20063;-70
2023/08/23 00:21:06;;;;;;;8.23;6.13;;;;;;;13.92;100.00;101979.19;4987417;28;20036;-70
2023/08/23 00:23:31;;;;;;;11.63;7.80;;;;;;;13.94;100.00;101972.16;4977651;28;20414;-70
2023/08/23 00:25:57;;;;;;;9.32;7.15;;;;;;;13.92;100.00;101968.63;4966472;28;20037;-70
2023/08/23 00:28:22;;;;;;;11.15;7.82;;;;;;;13.91;100.00;101973.03;4980249;28;20038;-70
2023/08/23 00:30:52;;;;;;;10.02;6.55;;;;;;;14.01;100.00;101976.47;4989975;28;20448;-70
2023/08/23 00:33:18;;;;;;;7.45;5.35;;;;;;;13.91;100.00;101972.19;4968100;28;20458;-70
2023/08/23 00:35:43;;;;;;;10.95;5.18;;;;;;;13.95;100.00;101973.88;4993734;28;20112;-70
2023/08/23 00:38:09;;;;;;;7.53;5.20;;;;;;;13.98;100.00;101969.47;4992965;28;20155;-70
2023/08/23 00:40:34;;;;;;;4.90;3.95;;;;;;;13.99;100.00;101965.97;4987123;28;20037;-70
2023/08/23 00:43:00;;;;;;;11.10;5.95;;;;;;;14.02;99.75;101965.03;4981785;28;20061;-70
2023/08/23 00:45:28;;;;;;;10.15;5.68;;;;;;;14.01;99.86;101965.94;4998174;28;20135;-70
2023/08/23 00:47:53;;;;;;;6.75;5.50;;;;;;;14.00;100.00;101962.41;5007808;28;20029;-70
2023/08/23 00:50:20;;;;;;;13.07;6.00;;;;;;;13.96;100.00;101958.06;4994397;28;20370;-70
2023/08/23 00:52:46;;;;;;;6.88;4.85;;;;;;;14.01;100.00;101953.63;4978301;28;20129;-70
2023/08/23 00:55:11;;;;;;;6.90;5.30;;;;;;;14.02;100.00;101949.22;4981468;28;20041;-70
2023/08/23 00:57:37;;;;;;;10.43;6.40;;;;;;;13.88;100.00;101952.00;4984330;28;20030;-70
2023/08/23 01:00:03;;;;;;;12.10;6.88;;;;;;;13.94;100.00;101943.16;4979139;28;20485;-70
2023/08/23 01:02:28;;;;;;;8.40;6.45;;;;;;;13.74;100.00;101943.31;4987265;28;20029;-70
2023/08/23 01:04:54;;;;;;;11.10;7.43;;;;;;;13.68;100.00;101944.22;4995209;28;20060;-69
2023/08/23 01:07:46;;;;;;;7.00;6.30;;;;;;;13.61;100.00;101947.78;4967004;28;20050;-70
2023/08/23 01:10:32;;;;;;;10.38;6.78;;;;;;;13.63;100.00;101944.28;5008300;28;20034;-69
2023/08/23 01:13:22;;;;;;;7.78;7.13;;;;;;;13.49;100.00;101947.00;4999310;28;20167;-70
2023/08/23 01:15:49;;;;;;;7.10;6.40;;;;;;;13.49;100.00;101954.88;4995537;28;20026;-70
2023/08/23 01:18:15;;;;;;;7.57;5.72;;;;;;;13.44;100.00;101948.75;4993985;28;20053;-70
2023/08/23 01:20:42;;;;;;;6.15;5.10;;;;;;;13.56;100.00;101946.94;4963966;28;20030;-70
2023/08/23 01:23:11;;;;;;;6.30;4.80;;;;;;;13.58;100.00;101958.34;4995764;28;20037;-70
2023/08/23 01:25:42;;;;;;;6.05;5.10;;;;;;;13.52;100.00;101960.13;4991008;28;20030;-70
2023/08/23 01:28:08;;;;;;;5.00;4.50;;;;;;;13.42;100.00;101963.72;4998112;28;20445;-70
2023/08/23 01:30:34;;;;;;;5.53;4.50;;;;;;;13.42;100.00;101962.81;4963573;28;20037;-70
2023/08/23 01:33:29;;;;;;;6.40;4.47;;;;;;;13.51;100.00;101968.91;4978861;28;20049;-70
2023/08/23 01:36:06;;;;;;;5.00;3.70;;;;;;;13.30;100.00;101962.00;4991074;28;20041;-70
2023/08/23 01:38:33;;;;;;;5.45;4.43;;;;;;;13.39;100.00;101961.09;4995683;28;20046;-70
2023/08/23 01:40:59;;;;;;;4.50;3.90;;;;;;;13.37;100.00;101960.22;4997791;28;20220;-70
2023/08/23 01:43:25;;;;;;;10.07;5.22;;;;;;;13.31;100.00;101949.69;4980654;28;20117;-70
2023/08/23 01:45:50;;;;;;;6.10;5.07;;;;;;;13.31;100.00;101955.81;4980041;28;20030;-70
2023/08/23 01:48:16;;;;;;;5.57;4.97;;;;;;;13.37;100.00;101949.69;4979555;28;20072;-70
2023/08/23 01:50:41;;;;;;;4.20;3.80;;;;;;;13.35;100.00;101954.09;4972509;28;20075;-70
2023/08/23 01:53:07;;;;;;;4.03;3.72;;;;;;;13.27;100.00;101951.44;4978384;28;20040;-70
2023/08/23 01:55:32;;;;;;;6.85;6.03;;;;;;;13.15;100.00;101939.22;4963635;28;20491;-70
2023/08/23 01:57:58;;;;;;;4.53;4.05;;;;;;;13.16;100.00;101942.75;4974207;28;20390;-70
2023/08/23 02:00:24;;;;;;;5.82;4.20;;;;;;;13.18;100.00;101947.09;4968029;28;20128;-70
2023/08/23 02:02:49;;;;;;;4.28;3.65;;;;;;;13.19;100.00;101948.00;4962813;28;20034;-70
2023/08/23 02:05:15;;;;;;;5.80;5.00;;;;;;;13.05;100.00;101950.69;4968765;28;20030;-70
2023/08/23 02:07:40;;;;;;;6.47;5.03;;;;;;;13.13;100.00;101940.13;4964972;28;20403;-70
2023/08/23 02:10:06;;;;;;;6.43;5.15;;;;;;;13.07;100.00;101946.28;4973188;28;20469;-70
2023/08/23 02:12:31;;;;;;;7.95;6.57;;;;;;;13.12;100.00;101944.50;4995230;28;20040;-70
2023/08/23 02:14:57;;;;;;;5.88;5.32;;;;;;;13.15;100.00;101941.00;4982354;28;20017;-70
2023/08/23 02:17:22;;;;;;;7.78;6.38;;;;;;;12.92;100.00;101941.09;4961529;28;20471;-70
2023/08/23 02:19:48;;;;;;;8.85;6.43;;;;;;;13.06;100.00;101943.66;4960855;28;20018;-70
2023/08/23 02:22:13;;;;;;;7.22;5.53;;;;;;;13.06;100.00;101939.28;4984092;28;20509;-70
2023/08/23 02:24:39;;;;;;;6.50;4.65;;;;;;;13.02;100.00;101944.59;4994072;28;20382;-70
2023/08/23 02:27:04;;;;;;;8.38;6.65;;;;;;;12.92;100.00;101952.50;4961201;28;20046;-70
2023/08/23 02:29:30;;;;;;;6.65;5.78;;;;;;;12.96;100.00;101945.47;4984626;28;20096;-70
2023/08/23 02:31:55;;;;;;;7.43;5.82;;;;;;;12.82;100.00;101941.13;4960207;28;20415;-70
2023/08/23 02:34:20;;;;;;;8.43;6.57;;;;;;;12.78;100.00;101939.38;4979709;28;20061;-70
2023/08/23 02:36:46;;;;;;;5.78;5.18;;;;;;;12.77;100.00;101942.91;4981930;28;20033;-70
2023/08/23 02:39:12;;;;;;;94.60;13.23;;;;;;;12.71;100.00;101940.28;5010681;28;20374;-70
2023/08/23 02:41:37;;;;;;;17.20;6.15;;;;;;;12.70;100.00;101932.41;4977502;28;20400;-70
2023/08/23 02:44:03;;;;;;;6.65;5.43;;;;;;;12.65;100.00;101937.69;5005280;28;20052;-70
2023/08/23 02:46:28;;;;;;;6.10;5.18;;;;;;;12.69;100.00;101936.78;4989636;28;20045;-70
2023/08/23 02:48:54;;;;;;;4.65;4.15;;;;;;;12.65;100.00;101938.53;4960546;28;20022;-70
2023/08/23 02:51:19;;;;;;;6.47;4.55;;;;;;;12.70;100.00;101941.19;4984900;28;20489;-70
2023/08/23 02:53:44;;;;;;;5.30;3.92;;;;;;;12.60;100.00;101934.22;4963880;28;20036;-70
2023/08/23 02:56:10;;;;;;;7.05;5.50;;;;;;;12.62;100.00;101933.28;4977119;28;20033;-70
2023/08/23 02:58:35;;;;;;;7.40;5.32;;;;;;;12.56;100.00;101938.59;4961193;28;20363;-70
2023/08/23 03:01:02;;;;;;;7.80;5.10;;;;;;;12.49;100.00;101928.97;4975050;28;20052;-70
2023/08/23 03:03:28;;;;;;;7.03;5.25;;;;;;;12.48;100.00;101922.84;4985018;28;20041;-70
2023/08/23 03:05:55;;;;;;;5.78;4.45;;;;;;;12.56;100.00;101928.06;4983236;28;20034;-70
2023/08/23 03:08:25;;;;;;;5.13;4.65;;;;;;;12.47;100.00;101918.44;5005866;28;20406;-70
2023/08/23 03:10:51;;;;;;;2.25;1.70;;;;;;;12.69;100.00;101923.66;4993827;28;20034;-70
2023/08/23 03:13:16;;;;;;;4.07;3.65;;;;;;;12.53;100.00;101922.81;4994613;28;20444;-70
2023/08/23 03:15:42;;;;;;;4.50;3.78;;;;;;;12.39;100.00;101919.34;4992862;28;20026;-70
2023/08/23 03:18:08;;;;;;;4.57;4.10;;;;;;;12.47;100.00;101921.06;4958533;28;20394;-70
2023/08/23 03:20:33;;;;;;;3.90;3.50;;;;;;;12.48;100.00;101920.22;4972809;28;20402;-70
2023/08/23 03:22:59;;;;;;;4.03;3.40;;;;;;;12.41;100.00;101920.22;4976586;28;20037;-70
2023/08/23 03:25:24;;;;;;;3.63;3.28;;;;;;;12.50;100.00;101914.03;4976873;28;20025;-70
2023/08/23 03:27:52;;;;;;;5.07;4.20;;;;;;;12.56;100.00;101911.44;4969428;28;20049;-70
2023/08/23 03:30:21;;;;;;;5.05;3.45;;;;;;;12.53;100.00;101916.66;4975447;28;20048;-70
2023/08/23 03:32:47;;;;;;;5.40;2.88;;;;;;;12.51;100.00;101919.28;4988281;28;20125;-70
2023/08/23 03:35:13;;;;;;;7.35;3.63;;;;;;;12.45;100.00;101912.31;4976867;28;20120;-70
2023/08/23 03:37:39;;;;;;;5.07;3.28;;;;;;;12.50;100.00;101916.69;4987316;28;20040;-70
2023/08/23 03:40:05;;;;;;;4.68;3.25;;;;;;;12.55;100.00;101920.19;5005937;28;20030;-70
2023/08/23 03:42:30;;;;;;;6.35;3.85;;;;;;;12.43;100.00;101913.22;5003408;28;20072;-70
2023/08/23 03:44:58;;;;;;;4.03;3.63;;;;;;;12.60;100.00;101923.69;5000581;28;20046;-70
2023/08/23 03:47:23;;;;;;;4.90;4.40;;;;;;;12.62;100.00;101924.53;4961932;28;20040;-70
2023/08/23 03:49:49;;;;;;;5.43;3.97;;;;;;;12.64;100.00;101926.28;4956834;28;20023;-70
2023/08/23 03:52:15;;;;;;;6.18;4.05;;;;;;;12.40;100.00;101923.75;4959247;28;20501;-70
2023/08/23 03:54:40;;;;;;;7.32;4.47;;;;;;;12.51;100.00;101919.28;4959609;28;20041;-70
2023/08/23 03:57:06;;;;;;;4.63;4.13;;;;;;;12.39;100.00;101921.97;4994188;28;20037;-70
2023/08/23 03:59:31;;;;;;;7.07;5.13;;;;;;;12.40;100.00;101934.25;4968017;28;20379;-70
2023/08/23 04:01:57;;;;;;;4.80;4.07;;;;;;;12.38;100.00;101931.59;4976221;28;20040;-70
2023/08/23 04:04:22;;;;;;;5.00;4.05;;;;;;;12.43;100.00;101921.09;4976585;28;20068;-70
2023/08/23 04:06:48;;;;;;;5.22;4.72;;;;;;;12.43;100.00;101932.47;4965971;28;20034;-70
2023/08/23 04:09:13;;;;;;;6.72;4.80;;;;;;;12.28;100.00;101927.25;4976073;28;20026;-69
2023/08/23 04:11:39;;;;;;;5.43;4.18;;;;;;;12.38;100.00;101920.22;4963057;28;20069;-69
2023/08/23 04:14:04;;;;;;;6.38;4.85;;;;;;;12.40;100.00;101921.97;4971915;28;20376;-70
2023/08/23 04:16:29;;;;;;;7.35;5.38;;;;;;;12.25;100.00;101932.50;4940621;28;20371;-70
2023/08/23 04:18:55;;;;;;;6.32;5.72;;;;;;;12.32;100.00;101944.75;4958832;28;20089;-69
2023/08/23 04:21:20;;;;;;;5.65;4.97;;;;;;;12.42;100.00;101930.72;4974625;28;20053;-70
2023/08/23 04:23:46;;;;;;;5.32;4.43;;;;;;;12.41;100.00;101934.25;4956943;28;20121;-69
2023/08/23 04:26:13;;;;;;;6.07;4.05;;;;;;;12.47;100.00;101928.09;4953979;28;20374;-69
2023/08/23 04:28:39;;;;;;;4.60;4.18;;;;;;;12.50;100.00;101937.72;4938420;28;20486;-69
2023/08/23 04:31:04;;;;;;;4.63;4.18;;;;;;;12.41;100.00;101934.25;4952966;28;20049;-69
2023/08/23 04:33:30;;;;;;;5.22;4.18;;;;;;;12.43;100.00;101931.59;4968113;28;20042;-69
2023/08/23 04:35:56;;;;;;;6.55;4.40;;;;;;;12.38;100.00;101936.00;4953880;28;20113;-70
2023/08/23 04:38:21;;;;;;;5.15;3.53;;;;;;;12.41;100.00;101936.88;4938854;28;20426;-69
2023/08/23 04:40:46;;;;;;;4.25;3.25;;;;;;;12.43;100.00;101936.88;4952430;28;20493;-70
2023/08/23 04:43:12;;;;;;;3.88;2.85;;;;;;;12.34;100.00;101929.88;4934126;28;20031;-70
2023/08/23 04:45:39;;;;;;;4.25;3.85;;;;;;;12.35;100.00;101931.59;4955129;28;20597;-70
2023/08/23 04:48:05;;;;;;;4.43;3.40;;;;;;;12.39;100.00;101935.97;4986914;28;20043;-69
2023/08/23 04:50:36;;;;;;;6.15;4.43;;;;;;;12.41;100.00;101939.50;4962712;28;20031;-69
2023/08/23 04:53:01;;;;;;;5.25;4.05;;;;;;;12.43;100.00;101931.59;4954538;28;21129;-69
2023/08/23 04:55:27;;;;;;;5.00;4.47;;;;;;;12.33;100.00;101936.00;4955492;28;20474;-70
2023/08/23 04:57:52;;;;;;;5.28;4.70;;;;;;;12.36;100.00;101929.88;4938551;28;20418;-69
2023/08/23 05:00:18;;;;;;;5.00;4.53;;;;;;;12.42;100.00;101920.19;4952910;28;20027;-70
2023/08/23 05:02:43;;;;;;;4.70;4.13;;;;;;;12.44;100.00;101917.56;4953821;28;20026;-69
2023/08/23 05:05:09;;;;;;;4.63;3.60;;;;;;;12.51;100.00;101931.59;4940495;28;20038;-70
2023/08/23 05:07:35;;;;;;;6.55;4.53;;;;;;;12.55;100.00;101928.06;4953944;28;20045;-70
2023/08/23 05:10:01;;;;;;;7.30;5.20;;;;;;;12.48;100.00;101924.56;4961935;28;20153;-70
2023/08/23 05:12:28;;;;;;;7.32;4.50;;;;;;;12.62;100.00;101927.16;4964757;28;20466;-70
2023/08/23 05:14:54;;;;;;;5.70;4.78;;;;;;;12.74;100.00;101924.53;4992662;28;20428;-70
2023/08/23 05:17:21;;;;;;;8.85;4.80;;;;;;;12.83;100.00;101927.09;4948763;28;20042;-70
2023/08/23 05:19:47;;;;;;;5.28;4.63;;;;;;;12.90;100.00;101920.06;4985215;28;20045;-70
2023/08/23 05:22:12;;;;;;;6.60;4.40;;;;;;;12.91;100.00;101915.66;4971179;28;20034;-70
2023/08/23 05:24:38;;;;;;;6.28;4.13;;;;;;;13.09;100.00;101918.22;4988377;28;20040;-70
2023/08/23 05:27:03;;;;;;;5.68;4.47;;;;;;;13.26;100.00;101912.88;4966579;28;20029;-70
2023/08/23 05:29:29;;;;;;;6.47;4.95;;;;;;;13.28;100.00;101918.13;4973742;28;20497;-70
2023/08/23 05:31:54;;;;;;;10.40;5.18;;;;;;;13.43;100.00;101925.97;4965749;28;20018;-70
2023/08/23 05:34:19;;;;;;;6.70;5.60;;;;;;;13.54;100.00;101920.63;4979748;28;20390;-70
2023/08/23 05:36:45;;;;;;;9.02;6.22;;;;;;;13.59;100.00;101920.56;4965477;28;20394;-70
2023/08/23 05:39:10;;;;;;;9.90;7.05;;;;;;;13.68;100.00;101924.03;4969715;28;20363;-70
2023/08/23 05:41:36;;;;;;;13.30;7.00;;;;;;;13.73;100.00;101921.34;4971890;28;20029;-70
2023/08/23 05:44:01;;;;;;;10.60;6.82;;;;;;;13.78;100.00;101923.97;4961847;28;20443;-70
2023/08/23 05:46:26;;;;;;;10.45;7.35;;;;;;;13.85;100.00;101931.81;4988333;28;20030;-70
2023/08/23 05:48:52;;;;;;;12.73;8.38;;;;;;;13.84;100.00;101924.78;4971035;28;20093;-70
2023/08/23 05:51:17;;;;;;;9.32;7.30;;;;;;;13.86;100.00;101920.38;4978175;28;20458;-70
2023/08/23 05:53:43;;;;;;;10.25;7.07;;;;;;;13.94;100.00;101933.50;4969738;28;20033;-70
2023/08/23 05:56:08;;;;;;;9.85;7.47;;;;;;;13.80;100.00;101930.94;4985264;28;20482;-70
2023/08/23 05:58:34;;;;;;;10.40;7.50;;;;;;;13.87;100.00;101934.44;4973628;28;20500;-70
2023/08/23 06:00:59;;;;;;;9.45;7.43;;;;;;;14.04;100.00;101944.81;4982962;28;20039;-70
2023/08/23 06:03:25;;;;;;;13.25;7.57;;;;;;;14.27;100.00;101946.41;4976645;28;20030;-70
2023/08/23 06:05:57;;;;;;;10.20;8.10;;;;;;;14.58;100.00;101949.56;4992975;28;20064;-70
2023/08/23 06:08:23;;;;;;;9.00;7.47;;;;;;;15.11;100.00;101944.56;4976960;28;20149;-70
2023/08/23 06:10:48;;;;;;;11.70;7.68;;;;;;;15.41;100.00;101942.41;5002099;28;20100;-70
2023/08/23 06:13:14;;;;;;;14.88;8.77;;;;;;;15.69;100.00;101948.16;4987000;28;20428;-70
2023/08/23 06:15:40;;;;;;;14.25;9.35;;;;;;;16.09;100.00;101951.94;4984414;28;20025;-70
2023/08/23 06:18:05;;;;;;;14.02;9.93;;;;;;;16.66;100.00;101942.97;4995146;28;20366;-70
2023/08/23 06:20:31;;;;;;;14.35;9.85;;;;;;;17.29;100.00;101944.34;4980086;28;20040;-70
2023/08/23 06:22:57;;;;;;;12.23;9.38;;;;;;;17.90;100.00;101946.50;4996848;28;20032;-70
2023/08/23 06:25:22;;;;;;;11.20;9.90;;;;;;;18.42;100.00;101943.38;5005297;28;20033;-70
2023/08/23 06:27:48;;;;;;;11.85;8.82;;;;;;;18.68;99.59;101948.84;4963926;28;20037;-70
2023/08/23 06:30:15;;;;;;;9.63;8.57;;;;;;;19.39;97.06;101948.56;4990262;28;20115;-71
2023/08/23 06:32:46;;;;;;;11.55;8.02;;;;;;;19.16;91.74;101947.50;4971155;28;20040;-70
2023/08/23 06:35:11;;;;;;;9.98;8.98;;;;;;;19.41;90.31;101945.88;4991242;28;20040;-70
2023/08/23 06:37:36;;;;;;;11.90;9.90;;;;;;;20.20;92.45;101944.19;4974405;28;20030;-70
2023/08/23 06:40:02;;;;;;;10.93;9.60;;;;;;;20.50;88.96;101952.91;4974687;28;20044;-70
2023/08/23 06:42:28;;;;;;;11.15;10.05;;;;;;;20.87;87.48;101956.91;4980668;28;20034;-70
2023/08/23 06:44:54;;;;;;;10.85;9.73;;;;;;;21.50;85.97;101955.41;4977508;28;20026;-70
2023/08/23 06:47:19;;;;;;;11.35;9.43;;;;;;;21.60;81.07;101959.47;4985359;28;20384;-70
2023/08/23 06:49:45;;;;;;;10.35;9.35;;;;;;;21.96;82.31;101950.88;4994544;28;20025;-71
2023/08/23 06:52:10;;;;;;;11.63;9.18;;;;;;;22.71;81.41;101959.25;4983674;28;20100;-70
2023/08/23 06:54:35;;;;;;;12.55;8.95;;;;;;;23.05;79.37;101952.34;4960247;28;20042;-71
2023/08/23 06:57:01;;;;;;;10.80;9.52;;;;;;;22.58;73.00;101962.47;4960075;28;20038;-70
2023/08/23 06:59:26;;;;;;;9.43;8.27;;;;;;;22.73;73.25;101960.03;4963019;28;20033;-70
2023/08/23 07:01:52;;;;;;;10.93;8.25;;;;;;;22.64;74.91;101955.97;4943349;28;20030;-70
2023/08/23 07:04:17;;;;;;;9.82;8.77;;;;;;;23.01;75.50;101973.00;4977649;28;20041;-70
2023/08/23 07:06:42;;;;;;;10.85;9.23;;;;;;;23.49;75.57;101969.00;4985033;28;20045;-70
2023/08/23 07:09:08;;;;;;;9.98;8.43;;;;;;;23.56;73.34;101974.03;4985621;28;20060;-70
2023/08/23 07:11:33;;;;;;;10.55;8.57;;;;;;;23.72;72.38;101974.16;4975356;28;20129;-70
2023/08/23 07:13:59;;;;;;;9.57;8.32;;;;;;;22.71;68.71;101969.94;4991432;28;20394;-70
2023/08/23 07:16:24;;;;;;;10.48;8.43;;;;;;;22.00;71.31;101979.19;4966265;28;20084;-70
2023/08/23 07:18:50;;;;;;;10.70;8.80;;;;;;;21.71;71.41;101970.56;4963716;28;20034;-70
2023/08/23 07:21:15;;;;;;;10.07;8.57;;;;;;;21.41;74.05;101976.19;4986761;28;20172;-70
2023/08/23 07:23:40;;;;;;;9.93;8.77;;;;;;;22.33;76.07;101986.72;4971875;28;20034;-70
2023/08/23 07:26:06;;;;;;;11.88;8.70;;;;;;;22.29;75.84;101985.09;4980496;28;20029;-70
2023/08/23 07:28:31;;;;;;;9.85;8.85;;;;;;;22.05;73.37;101978.97;4983909;28;20048;-70
2023/08/23 07:30:57;;;;;;;11.05;8.60;;;;;;;22.06;73.32;101978.06;4968328;28;20030;-70
2023/08/23 07:33:27;;;;;;;11.02;8.20;;;;;;;22.27;74.28;101992.31;4988961;28;20070;-70
2023/08/23 07:35:55;;;;;;;11.13;7.95;;;;;;;21.74;74.64;101993.59;5018225;28;20373;-70
2023/08/23 07:38:20;;;;;;;11.07;9.10;;;;;;;21.44;77.14;101984.03;4974694;28;20045;-70
2023/08/23 07:40:46;;;;;;;9.32;8.13;;;;;;;21.72;75.03;101991.00;4995104;28;20021;-70
2023/08/23 07:43:11;;;;;;;11.25;8.20;;;;;;;22.07;74.83;101999.34;4993733;28;20044;-70
2023/08/23 07:45:36;;;;;;;8.20;7.40;;;;;;;21.57;73.16;101996.94;4968196;28;20021;-70
2023/08/23 07:48:02;;;;;;;10.30;8.77;;;;;;;22.15;75.88;101999.91;4981222;28;20030;-70
2023/08/23 07:50:27;;;;;;;9.13;7.93;;;;;;;22.11;74.62;101995.63;4999013;28;20029;-70
2023/08/23 07:52:53;;;;;;;8.80;7.43;;;;;;;21.86;73.76;101994.91;4981061;28;20139;-70
2023/08/23 07:55:19;;;;;;;9.77;7.82;;;;;;;21.68;73.74;102000.06;4990307;28;20041;-69
2023/08/23 07:57:44;;;;;;;10.63;8.20;;;;;;;22.13;75.14;101995.53;4978208;28;20030;-70
2023/08/23 08:00:10;;;;;;;8.75;7.80;;;;;;;22.33;74.48;102001.88;4990254;28;20029;-70
2023/08/23 08:02:36;;;;;;;9.80;7.18;;;;;;;22.09;70.21;102000.13;4982497;28;20129;-69
2023/08/23 08:05:01;;;;;;;8.50;7.40;;;;;;;22.49;71.20;102006.47;4999223;28;20389;-70
2023/08/23 08:07:29;;;;;;;8.30;7.40;;;;;;;22.53;70.38;102003.66;4969078;28;20030;-70
2023/08/23 08:09:54;;;;;;;7.97;7.03;;;;;;;22.68;70.07;102005.66;4978773;28;20379;-70
2023/08/23 08:12:21;;;;;;;10.93;7.15;;;;;;;22.75;70.14;102001.78;4980069;28;20037;-70
2023/08/23 08:14:46;;;;;;;8.00;7.03;;;;;;;22.80;68.97;102005.13;4971565;28;20030;-69
2023/08/23 08:17:11;;;;;;;8.55;7.35;;;;;;;22.98;68.71;101999.88;4961444;28;20478;-70
2023/08/23 08:19:37;;;;;;;8.23;7.40;;;;;;;22.88;68.66;102001.25;4959707;28;20076;-69
2023/08/23 08:22:02;;;;;;;9.27;7.43;;;;;;;22.96;68.78;101997.28;4973170;28;20038;-70
2023/08/23 08:24:28;;;;;;;8.25;7.38;;;;;;;22.70;66.92;102005.59;4972642;28;20401;-70
2023/08/23 08:26:54;;;;;;;7.55;6.80;;;;;;;22.80;66.99;102002.47;4990358;28;20026;-70
2023/08/23 08:29:19;;;;;;;10.25;7.20;;;;;;;23.00;65.96;101998.00;4974506;28;20041;-70
2023/08/23 08:31:45;;;;;;;7.70;6.50;;;;;;;22.99;65.01;102001.63;4956183;28;20026;-70
2023/08/23 08:34:10;;;;;;;8.77;6.95;;;;;;;22.95;65.01;101995.53;4984233;28;20477;-70
2023/08/23 08:36:37;;;;;;;8.45;6.50;;;;;;;22.75;63.47;102007.13;5011373;28;20469;-69
2023/08/23 08:39:02;;;;;;;7.75;5.40;;;;;;;22.54;62.66;102005.41;4971022;28;20093;-70
2023/08/23 08:41:28;;;;;;;8.38;5.95;;;;;;;22.81;65.36;102009.53;4986046;28;20033;-70
2023/08/23 08:43:54;;;;;;;8.07;6.60;;;;;;;22.38;64.20;102011.41;5003415;28;20116;-69
2023/08/23 08:46:20;;;;;;;7.40;6.05;;;;;;;22.18;63.64;102003.34;5005187;28;20025;-69
2023/08/23 08:48:45;;;;;;;7.43;6.57;;;;;;;22.40;65.77;101993.53;4991914;28;20066;-69
2023/08/23 08:51:19;;;;;;;8.70;6.95;;;;;;;22.34;64.39;101993.81;4975110;28;20075;-69
2023/08/23 08:53:54;;;;;;;8.55;6.63;;;;;;;22.63;66.63;101991.66;4980802;28;20501;-69
2023/08/23 08:56:20;;;;;;;7.10;5.72;;;;;;;22.41;64.42;101989.94;5008858;28;20045;-69
2023/08/23 08:58:48;;;;;;;8.65;5.60;;;;;;;22.71;64.92;101997.50;4985709;28;20085;-69
2023/08/23 09:01:14;;;;;;;8.68;5.68;;;;;;;22.45;62.64;101999.53;4981493;28;20026;-69
2023/08/23 09:03:40;;;;;;;7.43;5.00;;;;;;;22.36;61.37;102007.09;5000065;28;20422;-69
2023/08/23 09:06:07;;;;;;;6.65;5.78;;;;;;;22.54;65.37;102000.06;4975140;28;20034;-69
2023/08/23 09:08:33;;;;;;;10.00;5.90;;;;;;;22.70;64.70;101993.13;5028103;23;20529;-70
2023/08/23 09:10:59;;;;;;;7.50;6.57;;;;;;;22.76;65.52;101995.50;5165065;22;20044;-68
2023/08/23 09:13:25;;;;;;;7.68;6.75;;;;;;;22.87;65.20;101991.47;5183747;22;20073;-68
2023/08/23 09:15:51;;;;;;;10.13;6.45;;;;;;;23.00;64.68;101979.28;5168342;23;20068;-67
2023/08/23 09:18:19;;;;;;;8.10;6.60;;;;;;;23.02;64.31;101993.47;5159226;22;20509;-67
2023/08/23 09:20:46;;;;;;;8.35;7.30;;;;;;;22.87;62.32;101992.38;5222396;22;20096;-67
2023/08/23 09:25:39;;;;;;;10.02;7.13;;;;;;;23.15;64.39;101985.78;5071211;22;20073;-68
2023/08/23 09:28:11;;;;;;;8.63;6.60;;;;;;;23.17;64.39;101989.22;5235267;22;20361;-68
2023/08/23 09:30:37;;;;;;;10.23;6.70;;;;;;;23.39;65.02;101980.19;5070458;22;20053;-68
2023/08/23 09:33:02;;;;;;;9.60;6.70;;;;;;;23.28;61.75;101981.56;5104305;23;20042;-67
2023/08/23 09:35:29;;;;;;;11.18;7.28;;;;;;;23.42;65.63;101977.38;4977099;28;20113;-67
2023/08/23 09:38:21;;;;;;;9.70;7.90;;;;;;;23.38;64.09;101984.69;5298747;23;20072;31
2023/08/23 09:43:16;;;;;;;9.43;7.40;;;;;;;23.60;64.17;101997.88;5175065;22;20241;-68
2023/08/23 09:45:42;;;;;;;9.15;6.45;;;;;;;23.55;63.81;101991.00;5094977;22;20053;-68
2023/08/23 09:48:10;;;;;;;8.63;7.15;;;;;;;23.80;64.15;101993.38;5226563;23;20065;-68
2023/08/23 09:50:36;;;;;;;11.05;7.53;;;;;;;23.82;64.17;101981.66;5211486;22;20600;-68
2023/08/23 09:53:04;;;;;;;11.48;7.20;;;;;;;23.91;64.37;101985.72;5273464;22;20144;-69
2023/08/23 09:55:32;;;;;;;8.23;6.93;;;;;;;23.95;64.48;101981.94;5408276;23;20053;-69
2023/08/23 09:57:59;;;;;;;10.63;6.97;;;;;;;23.86;63.33;101975.25;5355703;22;20378;-68
2023/08/23 10:00:26;;;;;;;9.70;6.30;;;;;;;23.78;62.64;101974.72;5058689;22;20053;-68
2023/08/23 10:02:53;;;;;;;9.57;6.75;;;;;;;23.84;63.24;101979.75;4998788;28;20030;-68
2023/08/23 10:05:19;;;;;;;9.55;6.65;;;;;;;23.83;60.98;101983.41;4971969;28;20064;-69
2023/08/23 10:07:45;;;;;;;7.07;5.43;;;;;;;23.82;61.99;101986.13;4995687;28;20022;-70
2023/08/23 10:10:11;;;;;;;9.63;6.50;;;;;;;23.80;61.99;101983.53;4995909;28;20596;-70
2023/08/23 10:12:42;;;;;;;8.15;5.82;;;;;;;23.86;61.98;101988.63;4995144;28;20037;-69
2023/08/23 10:15:11;;;;;;;8.20;6.05;;;;;;;23.86;62.57;101987.69;4995252;28;20086;-69
2023/08/23 10:17:38;;;;;;;9.63;5.53;;;;;;;23.83;61.05;101990.53;4993549;28;20394;-69
2023/08/23 10:20:13;;;;;;;7.28;5.10;;;;;;;23.90;62.71;101999.19;5004948;28;20557;-70
2023/08/23 10:22:40;;;;;;;8.60;5.35;;;;;;;24.20;62.27;101992.25;5009768;28;20091;-70
2023/08/23 10:25:21;;;;;;;9.07;5.20;;;;;;;24.47;62.52;101985.56;4995173;28;20518;-69
2023/08/23 10:27:51;;;;;;;7.45;5.63;;;;;;;24.47;61.33;101983.75;4983268;28;20014;-69
2023/08/23 10:30:24;;;;;;;10.65;6.38;;;;;;;24.38;61.16;101985.09;4993829;28;20022;-69
2023/08/23 10:32:50;;;;;;;8.82;4.30;;;;;;;24.27;56.31;101983.94;4976889;28;20038;-70
2023/08/23 10:35:23;;;;;;;4.38;2.90;;;;;;;24.12;57.43;101986.44;4990385;28;20386;-70
2023/08/23 10:37:48;;;;;;;4.82;3.95;;;;;;;24.25;58.41;101978.66;4993114;28;20543;-69
2023/08/23 10:40:17;;;;;;;6.93;4.57;;;;;;;24.17;60.85;101981.72;4966230;28;20026;-69
2023/08/23 10:42:43;;;;;;;7.00;4.18;;;;;;;24.23;60.66;101979.69;4987533;28;20488;-69
2023/08/23 10:45:09;;;;;;;7.93;3.72;;;;;;;24.15;59.29;101972.91;4984645;28;20092;-70
2023/08/23 10:47:36;;;;;;;8.10;3.90;;;;;;;24.16;58.11;101969.25;4993865;28;20029;-69
2023/08/23 10:50:03;;;;;;;6.55;4.70;;;;;;;24.15;59.51;101972.91;4991985;28;20025;-70
2023/08/23 10:52:30;;;;;;;5.78;3.45;;;;;;;24.18;57.54;101969.19;4978762;28;20119;-69
2023/08/23 10:54:56;;;;;;;4.43;2.92;;;;;;;24.34;58.71;101970.13;4978890;28;20026;-69
2023/08/23 10:57:22;;;;;;;5.53;3.03;;;;;;;24.34;56.39;101971.94;4979147;28;20608;-70
2023/08/23 10:59:47;;;;;;;3.80;1.55;;;;;;;24.27;55.74;101970.53;4977330;28;20128;-70
2023/08/23 11:02:13;;;;;;;4.18;2.00;;;;;;;24.37;56.29;101966.44;4968981;28;20336;-69
2023/08/23 11:04:38;;;;;;;5.68;2.95;;;;;;;24.35;56.03;101962.94;5001374;28;20026;-70
2023/08/23 11:07:04;;;;;;;3.85;2.80;;;;;;;24.29;58.60;101955.25;4970622;28;20115;-69
2023/08/23 11:09:30;;;;;;;2.83;1.90;;;;;;;24.25;52.86;101950.97;4988685;28;21061;-69
2023/08/23 11:11:55;;;;;;;3.50;2.10;;;;;;;24.27;55.05;101944.59;4971012;28;20455;-69
2023/08/23 11:14:21;;;;;;;3.58;2.28;;;;;;;24.42;55.17;101942.06;4961982;28;20318;-69
2023/08/23 11:16:46;;;;;;;5.93;3.33;;;;;;;24.47;55.26;101940.88;4996573;28;20045;-69
2023/08/23 11:19:12;;;;;;;5.10;2.90;;;;;;;24.55;52.06;101937.78;4981094;28;20032;-70
2023/08/23 11:21:39;;;;;;;4.47;3.15;;;;;;;24.43;53.66;101939.31;5012244;28;20038;-69